sensor_id;sensor_type;location;lat;lon;timestamp;P1;durP1;ratioP1;P2;durP2;ratioP2
28828;SDS011;15966;51.540;11.870;2023-04-15T00:00:13;17.40;;;15.70;;
28828;SDS011;15966;51.540;11.870;2023-04-15T00:02:40;13.63;;;12.35;;
28828;SDS011;15966;51.540;11.870;2023-04-15T00:05:06;11.73;;;10.52;;
28828;SDS011;15966;51.540;11.870;2023-04-15T00:07:32;12.00;;;10.75;;
28828;SDS011;15966;51.540;11.870;2023-04-15T00:09:59;10.63;;;9.52;;
28828;SDS011;15966;51.540;11.870;2023-04-15T00:12:26;10.15;;;9.15;;
28828;SDS011;15966;51.540;11.870;2023-04-15T00:14:53;10.55;;;9.55;;
28828;SDS011;15966;51.540;11.870;2023-04-15T00:17:21;10.75;;;9.65;;
28828;SDS011;15966;51.540;11.870;2023-04-15T00:19:47;10.93;;;9.82;;
28828;SDS011;15966;51.540;11.870;2023-04-15T00:22:13;11.38;;;10.02;;
28828;SDS011;15966;51.540;11.870;2023-04-15T00:24:40;10.25;;;9.15;;
28828;SDS011;15966;51.540;11.870;2023-04-15T00:27:06;11.70;;;10.65;;
28828;SDS011;15966;51.540;11.870;2023-04-15T00:29:33;14.77;;;11.27;;
28828;SDS011;15966;51.540;11.870;2023-04-15T00:31:59;14.75;;;13.25;;
28828;SDS011;15966;51.540;11.870;2023-04-15T00:34:25;19.17;;;17.17;;
28828;SDS011;15966;51.540;11.870;2023-04-15T00:36:53;21.13;;;19.03;;
28828;SDS011;15966;51.540;11.870;2023-04-15T00:39:19;23.08;;;19.98;;
28828;SDS011;15966;51.540;11.870;2023-04-15T00:41:46;20.27;;;18.27;;
28828;SDS011;15966;51.540;11.870;2023-04-15T00:44:13;19.30;;;17.38;;
28828;SDS011;15966;51.540;11.870;2023-04-15T00:46:39;17.63;;;15.93;;
28828;SDS011;15966;51.540;11.870;2023-04-15T00:49:06;17.55;;;15.65;;
28828;SDS011;15966;51.540;11.870;2023-04-15T00:51:33;18.27;;;16.30;;
28828;SDS011;15966;51.540;11.870;2023-04-15T00:56:27;16.33;;;14.40;;
28828;SDS011;15966;51.540;11.870;2023-04-15T00:58:54;14.73;;;13.32;;
28828;SDS011;15966;51.540;11.870;2023-04-15T01:01:21;14.50;;;13.02;;
28828;SDS011;15966;51.540;11.870;2023-04-15T01:03:50;15.20;;;13.70;;
28828;SDS011;15966;51.540;11.870;2023-04-15T01:06:17;13.70;;;12.30;;
28828;SDS011;15966;51.540;11.870;2023-04-15T01:08:43;14.98;;;13.48;;
28828;SDS011;15966;51.540;11.870;2023-04-15T01:11:09;15.30;;;13.68;;
28828;SDS011;15966;51.540;11.870;2023-04-15T01:13:37;14.63;;;13.23;;
28828;SDS011;15966;51.540;11.870;2023-04-15T01:16:04;17.23;;;14.07;;
28828;SDS011;15966;51.540;11.870;2023-04-15T01:18:30;13.38;;;12.07;;
28828;SDS011;15966;51.540;11.870;2023-04-15T01:20:56;15.45;;;13.57;;
28828;SDS011;15966;51.540;11.870;2023-04-15T01:23:23;15.65;;;13.50;;
28828;SDS011;15966;51.540;11.870;2023-04-15T01:25:49;13.85;;;12.45;;
28828;SDS011;15966;51.540;11.870;2023-04-15T01:28:16;17.92;;;15.00;;
28828;SDS011;15966;51.540;11.870;2023-04-15T01:30:42;14.50;;;12.93;;
28828;SDS011;15966;51.540;11.870;2023-04-15T01:33:08;14.05;;;12.07;;
28828;SDS011;15966;51.540;11.870;2023-04-15T01:35:35;14.43;;;13.02;;
28828;SDS011;15966;51.540;11.870;2023-04-15T01:38:05;14.63;;;12.45;;
28828;SDS011;15966;51.540;11.870;2023-04-15T01:40:33;13.52;;;12.13;;
28828;SDS011;15966;51.540;11.870;2023-04-15T01:42:59;12.07;;;10.18;;
28828;SDS011;15966;51.540;11.870;2023-04-15T01:45:26;12.23;;;10.88;;
28828;SDS011;15966;51.540;11.870;2023-04-15T01:47:52;10.93;;;9.93;;
28828;SDS011;15966;51.540;11.870;2023-04-15T01:50:18;12.95;;;11.38;;
28828;SDS011;15966;51.540;11.870;2023-04-15T01:52:45;11.52;;;10.32;;
28828;SDS011;15966;51.540;11.870;2023-04-15T01:55:12;10.88;;;9.77;;
28828;SDS011;15966;51.540;11.870;2023-04-15T01:57:39;14.30;;;12.45;;
28828;SDS011;15966;51.540;11.870;2023-04-15T02:00:05;14.55;;;11.00;;
28828;SDS011;15966;51.540;11.870;2023-04-15T02:02:32;11.52;;;10.40;;
28828;SDS011;15966;51.540;11.870;2023-04-15T02:04:58;14.30;;;11.48;;
28828;SDS011;15966;51.540;11.870;2023-04-15T02:07:24;13.07;;;11.73;;
28828;SDS011;15966;51.540;11.870;2023-04-15T02:09:50;17.27;;;12.98;;
28828;SDS011;15966;51.540;11.870;2023-04-15T02:12:17;10.98;;;9.93;;
28828;SDS011;15966;51.540;11.870;2023-04-15T02:14:43;12.15;;;10.40;;
28828;SDS011;15966;51.540;11.870;2023-04-15T02:17:09;13.68;;;10.00;;
28828;SDS011;15966;51.540;11.870;2023-04-15T02:19:36;9.95;;;8.95;;
28828;SDS011;15966;51.540;11.870;2023-04-15T02:22:03;11.52;;;9.95;;
28828;SDS011;15966;51.540;11.870;2023-04-15T02:26:57;9.60;;;8.60;;
28828;SDS011;15966;51.540;11.870;2023-04-15T02:29:23;7.93;;;7.13;;
28828;SDS011;15966;51.540;11.870;2023-04-15T02:31:49;9.25;;;8.02;;
28828;SDS011;15966;51.540;11.870;2023-04-15T02:34:15;9.93;;;8.93;;
28828;SDS011;15966;51.540;11.870;2023-04-15T02:36:41;10.05;;;9.02;;
28828;SDS011;15966;51.540;11.870;2023-04-15T02:39:08;10.63;;;9.40;;
28828;SDS011;15966;51.540;11.870;2023-04-15T02:44:02;12.10;;;10.63;;
28828;SDS011;15966;51.540;11.870;2023-04-15T02:46:28;11.73;;;10.23;;
28828;SDS011;15966;51.540;11.870;2023-04-15T02:48:54;15.13;;;12.13;;
28828;SDS011;15966;51.540;11.870;2023-04-15T02:51:21;11.00;;;9.90;;
28828;SDS011;15966;51.540;11.870;2023-04-15T02:53:47;11.30;;;9.95;;
28828;SDS011;15966;51.540;11.870;2023-04-15T02:56:13;10.68;;;9.20;;
28828;SDS011;15966;51.540;11.870;2023-04-15T02:58:41;10.13;;;9.13;;
28828;SDS011;15966;51.540;11.870;2023-04-15T03:01:07;9.80;;;8.80;;
28828;SDS011;15966;51.540;11.870;2023-04-15T03:03:33;14.60;;;10.15;;
28828;SDS011;15966;51.540;11.870;2023-04-15T03:05:59;9.35;;;8.40;;
28828;SDS011;15966;51.540;11.870;2023-04-15T03:08:25;10.20;;;9.20;;
28828;SDS011;15966;51.540;11.870;2023-04-15T03:10:51;11.30;;;9.38;;
28828;SDS011;15966;51.540;11.870;2023-04-15T03:13:18;10.77;;;9.73;;
28828;SDS011;15966;51.540;11.870;2023-04-15T03:15:48;10.90;;;9.85;;
28828;SDS011;15966;51.540;11.870;2023-04-15T03:18:14;10.18;;;9.18;;
28828;SDS011;15966;51.540;11.870;2023-04-15T03:20:40;10.88;;;9.88;;
28828;SDS011;15966;51.540;11.870;2023-04-15T03:23:06;14.57;;;10.60;;
28828;SDS011;15966;51.540;11.870;2023-04-15T03:25:32;10.57;;;9.48;;
28828;SDS011;15966;51.540;11.870;2023-04-15T03:28:02;11.85;;;10.55;;
28828;SDS011;15966;51.540;11.870;2023-04-15T03:30:28;12.32;;;10.80;;
28828;SDS011;15966;51.540;11.870;2023-04-15T03:32:54;12.65;;;11.35;;
28828;SDS011;15966;51.540;11.870;2023-04-15T03:35:20;11.65;;;10.00;;
28828;SDS011;15966;51.540;11.870;2023-04-15T03:37:46;14.00;;;10.77;;
28828;SDS011;15966;51.540;11.870;2023-04-15T03:40:13;12.38;;;11.07;;
28828;SDS011;15966;51.540;11.870;2023-04-15T03:42:39;11.45;;;10.27;;
28828;SDS011;15966;51.540;11.870;2023-04-15T03:45:05;11.00;;;9.75;;
28828;SDS011;15966;51.540;11.870;2023-04-15T03:47:32;11.30;;;9.60;;
28828;SDS011;15966;51.540;11.870;2023-04-15T03:49:58;12.93;;;11.43;;
28828;SDS011;15966;51.540;11.870;2023-04-15T03:52:24;11.43;;;10.23;;
28828;SDS011;15966;51.540;11.870;2023-04-15T03:54:50;11.50;;;10.07;;
28828;SDS011;15966;51.540;11.870;2023-04-15T03:57:16;11.18;;;9.65;;
28828;SDS011;15966;51.540;11.870;2023-04-15T03:59:43;11.70;;;9.48;;
28828;SDS011;15966;51.540;11.870;2023-04-15T04:02:09;10.52;;;8.45;;
28828;SDS011;15966;51.540;11.870;2023-04-15T04:04:35;10.18;;;9.00;;
28828;SDS011;15966;51.540;11.870;2023-04-15T04:07:01;9.45;;;8.52;;
28828;SDS011;15966;51.540;11.870;2023-04-15T04:09:27;9.57;;;8.27;;
28828;SDS011;15966;51.540;11.870;2023-04-15T04:11:53;9.18;;;7.40;;
28828;SDS011;15966;51.540;11.870;2023-04-15T04:14:20;9.93;;;8.40;;
28828;SDS011;15966;51.540;11.870;2023-04-15T04:16:53;10.60;;;9.30;;
28828;SDS011;15966;51.540;11.870;2023-04-15T04:19:19;9.55;;;8.55;;
28828;SDS011;15966;51.540;11.870;2023-04-15T04:21:45;9.75;;;8.43;;
28828;SDS011;15966;51.540;11.870;2023-04-15T04:24:11;10.35;;;9.25;;
28828;SDS011;15966;51.540;11.870;2023-04-15T04:26:37;9.40;;;8.35;;
28828;SDS011;15966;51.540;11.870;2023-04-15T04:29:03;10.35;;;8.40;;
28828;SDS011;15966;51.540;11.870;2023-04-15T04:31:30;10.27;;;9.15;;
28828;SDS011;15966;51.540;11.870;2023-04-15T04:33:56;10.93;;;9.65;;
28828;SDS011;15966;51.540;11.870;2023-04-15T04:36:22;11.00;;;8.95;;
28828;SDS011;15966;51.540;11.870;2023-04-15T04:38:48;11.30;;;10.10;;
28828;SDS011;15966;51.540;11.870;2023-04-15T04:41:14;10.50;;;9.45;;
28828;SDS011;15966;51.540;11.870;2023-04-15T04:43:40;10.20;;;9.13;;
28828;SDS011;15966;51.540;11.870;2023-04-15T04:46:06;11.98;;;9.95;;
28828;SDS011;15966;51.540;11.870;2023-04-15T04:48:33;10.75;;;9.65;;
28828;SDS011;15966;51.540;11.870;2023-04-15T04:50:59;11.57;;;10.38;;
28828;SDS011;15966;51.540;11.870;2023-04-15T04:53:25;12.02;;;10.45;;
28828;SDS011;15966;51.540;11.870;2023-04-15T04:55:51;11.07;;;9.90;;
28828;SDS011;15966;51.540;11.870;2023-04-15T04:58:18;11.80;;;10.00;;
28828;SDS011;15966;51.540;11.870;2023-04-15T05:00:44;15.52;;;11.07;;
28828;SDS011;15966;51.540;11.870;2023-04-15T05:03:10;11.32;;;10.10;;
28828;SDS011;15966;51.540;11.870;2023-04-15T05:05:36;11.43;;;10.23;;
28828;SDS011;15966;51.540;11.870;2023-04-15T05:08:05;12.70;;;11.40;;
28828;SDS011;15966;51.540;11.870;2023-04-15T05:10:31;11.32;;;10.13;;
28828;SDS011;15966;51.540;11.870;2023-04-15T05:12:57;13.82;;;11.95;;
28828;SDS011;15966;51.540;11.870;2023-04-15T05:15:24;12.18;;;10.45;;
28828;SDS011;15966;51.540;11.870;2023-04-15T05:17:50;11.75;;;10.57;;
28828;SDS011;15966;51.540;11.870;2023-04-15T05:20:16;12.27;;;10.48;;
28828;SDS011;15966;51.540;11.870;2023-04-15T05:22:42;10.93;;;9.82;;
28828;SDS011;15966;51.540;11.870;2023-04-15T05:25:08;13.60;;;9.88;;
28828;SDS011;15966;51.540;11.870;2023-04-15T05:27:34;11.48;;;10.32;;
28828;SDS011;15966;51.540;11.870;2023-04-15T05:30:00;13.15;;;9.30;;
28828;SDS011;15966;51.540;11.870;2023-04-15T05:32:27;14.25;;;11.98;;
28828;SDS011;15966;51.540;11.870;2023-04-15T05:34:53;12.68;;;11.20;;
28828;SDS011;15966;51.540;11.870;2023-04-15T05:37:19;13.35;;;11.95;;
28828;SDS011;15966;51.540;11.870;2023-04-15T05:39:46;13.10;;;11.82;;
28828;SDS011;15966;51.540;11.870;2023-04-15T05:42:12;13.52;;;10.73;;
28828;SDS011;15966;51.540;11.870;2023-04-15T05:44:39;11.75;;;10.35;;
28828;SDS011;15966;51.540;11.870;2023-04-15T05:47:05;13.20;;;10.82;;
28828;SDS011;15966;51.540;11.870;2023-04-15T05:49:32;11.95;;;10.70;;
28828;SDS011;15966;51.540;11.870;2023-04-15T05:51:58;10.23;;;9.20;;
28828;SDS011;15966;51.540;11.870;2023-04-15T05:54:24;12.00;;;10.70;;
28828;SDS011;15966;51.540;11.870;2023-04-15T05:56:51;13.10;;;11.68;;
28828;SDS011;15966;51.540;11.870;2023-04-15T05:59:18;10.73;;;9.02;;
28828;SDS011;15966;51.540;11.870;2023-04-15T06:01:44;12.20;;;11.00;;
28828;SDS011;15966;51.540;11.870;2023-04-15T06:04:10;12.52;;;10.50;;
28828;SDS011;15966;51.540;11.870;2023-04-15T06:06:36;11.13;;;9.98;;
28828;SDS011;15966;51.540;11.870;2023-04-15T06:09:03;11.77;;;9.38;;
28828;SDS011;15966;51.540;11.870;2023-04-15T06:11:29;12.88;;;11.18;;
28828;SDS011;15966;51.540;11.870;2023-04-15T06:13:55;9.77;;;8.48;;
28828;SDS011;15966;51.540;11.870;2023-04-15T06:16:21;11.85;;;9.20;;
28828;SDS011;15966;51.540;11.870;2023-04-15T06:18:47;11.15;;;8.75;;
28828;SDS011;15966;51.540;11.870;2023-04-15T06:21:14;10.52;;;7.78;;
28828;SDS011;15966;51.540;11.870;2023-04-15T06:23:40;9.60;;;8.65;;
28828;SDS011;15966;51.540;11.870;2023-04-15T06:26:06;9.63;;;8.63;;
28828;SDS011;15966;51.540;11.870;2023-04-15T06:28:32;11.70;;;8.45;;
28828;SDS011;15966;51.540;11.870;2023-04-15T06:30:58;8.93;;;8.02;;
28828;SDS011;15966;51.540;11.870;2023-04-15T06:33:25;7.78;;;7.03;;
28828;SDS011;15966;51.540;11.870;2023-04-15T06:35:51;8.70;;;7.60;;
28828;SDS011;15966;51.540;11.870;2023-04-15T06:38:18;7.15;;;6.28;;
28828;SDS011;15966;51.540;11.870;2023-04-15T06:40:44;7.05;;;6.22;;
28828;SDS011;15966;51.540;11.870;2023-04-15T06:43:11;7.57;;;6.75;;
28828;SDS011;15966;51.540;11.870;2023-04-15T06:45:37;8.32;;;7.50;;
28828;SDS011;15966;51.540;11.870;2023-04-15T06:48:03;8.93;;;8.02;;
28828;SDS011;15966;51.540;11.870;2023-04-15T06:50:30;8.60;;;7.57;;
28828;SDS011;15966;51.540;11.870;2023-04-15T06:52:56;8.95;;;7.90;;
28828;SDS011;15966;51.540;11.870;2023-04-15T06:55:22;7.53;;;6.70;;
28828;SDS011;15966;51.540;11.870;2023-04-15T06:57:48;8.82;;;7.88;;
28828;SDS011;15966;51.540;11.870;2023-04-15T07:00:15;9.10;;;7.88;;
28828;SDS011;15966;51.540;11.870;2023-04-15T07:02:41;9.90;;;8.25;;
28828;SDS011;15966;51.540;11.870;2023-04-15T07:05:08;8.25;;;7.35;;
28828;SDS011;15966;51.540;11.870;2023-04-15T07:07:34;10.07;;;8.60;;
28828;SDS011;15966;51.540;11.870;2023-04-15T07:10:00;9.52;;;8.57;;
28828;SDS011;15966;51.540;11.870;2023-04-15T07:12:27;9.27;;;8.32;;
28828;SDS011;15966;51.540;11.870;2023-04-15T07:14:53;9.75;;;8.80;;
28828;SDS011;15966;51.540;11.870;2023-04-15T07:17:20;10.60;;;7.93;;
28828;SDS011;15966;51.540;11.870;2023-04-15T07:19:46;9.45;;;7.93;;
28828;SDS011;15966;51.540;11.870;2023-04-15T07:22:12;8.35;;;7.55;;
28828;SDS011;15966;51.540;11.870;2023-04-15T07:24:38;7.72;;;7.00;;
28828;SDS011;15966;51.540;11.870;2023-04-15T07:27:04;10.40;;;9.35;;
28828;SDS011;15966;51.540;11.870;2023-04-15T07:29:30;8.60;;;7.65;;
28828;SDS011;15966;51.540;11.870;2023-04-15T07:31:56;7.78;;;7.05;;
28828;SDS011;15966;51.540;11.870;2023-04-15T07:34:22;7.78;;;7.05;;
28828;SDS011;15966;51.540;11.870;2023-04-15T07:36:49;8.32;;;7.50;;
28828;SDS011;15966;51.540;11.870;2023-04-15T07:39:16;8.73;;;7.40;;
28828;SDS011;15966;51.540;11.870;2023-04-15T07:41:42;10.18;;;7.78;;
28828;SDS011;15966;51.540;11.870;2023-04-15T07:44:08;9.98;;;8.98;;
28828;SDS011;15966;51.540;11.870;2023-04-15T07:46:35;10.85;;;8.65;;
28828;SDS011;15966;51.540;11.870;2023-04-15T07:49:02;8.65;;;7.70;;
28828;SDS011;15966;51.540;11.870;2023-04-15T07:51:28;12.05;;;10.75;;
28828;SDS011;15966;51.540;11.870;2023-04-15T07:53:54;10.77;;;9.73;;
28828;SDS011;15966;51.540;11.870;2023-04-15T07:56:20;11.07;;;8.27;;
28828;SDS011;15966;51.540;11.870;2023-04-15T07:58:46;10.30;;;9.25;;
28828;SDS011;15966;51.540;11.870;2023-04-15T08:01:12;11.65;;;10.45;;
28828;SDS011;15966;51.540;11.870;2023-04-15T08:03:39;11.30;;;10.15;;
28828;SDS011;15966;51.540;11.870;2023-04-15T08:06:05;11.07;;;9.93;;
28828;SDS011;15966;51.540;11.870;2023-04-15T08:08:31;11.25;;;10.00;;
28828;SDS011;15966;51.540;11.870;2023-04-15T08:10:57;14.55;;;12.10;;
28828;SDS011;15966;51.540;11.870;2023-04-15T08:13:24;11.32;;;10.23;;
28828;SDS011;15966;51.540;11.870;2023-04-15T08:15:52;12.80;;;11.20;;
28828;SDS011;15966;51.540;11.870;2023-04-15T08:18:38;17.73;;;12.02;;
28828;SDS011;15966;51.540;11.870;2023-04-15T08:21:04;14.57;;;12.23;;
28828;SDS011;15966;51.540;11.870;2023-04-15T08:23:30;18.25;;;14.52;;
28828;SDS011;15966;51.540;11.870;2023-04-15T08:25:57;17.77;;;15.07;;
28828;SDS011;15966;51.540;11.870;2023-04-15T08:28:23;20.48;;;17.33;;
28828;SDS011;15966;51.540;11.870;2023-04-15T08:30:51;22.50;;;19.73;;
28828;SDS011;15966;51.540;11.870;2023-04-15T08:33:17;22.23;;;19.63;;
28828;SDS011;15966;51.540;11.870;2023-04-15T08:35:43;24.45;;;21.52;;
28828;SDS011;15966;51.540;11.870;2023-04-15T08:38:10;27.70;;;22.75;;
28828;SDS011;15966;51.540;11.870;2023-04-15T08:40:45;24.90;;;20.50;;
28828;SDS011;15966;51.540;11.870;2023-04-15T08:43:12;29.02;;;22.50;;
28828;SDS011;15966;51.540;11.870;2023-04-15T08:45:43;29.27;;;24.65;;
28828;SDS011;15966;51.540;11.870;2023-04-15T08:48:11;29.63;;;22.92;;
28828;SDS011;15966;51.540;11.870;2023-04-15T08:50:40;26.13;;;20.98;;
28828;SDS011;15966;51.540;11.870;2023-04-15T08:53:07;29.55;;;22.38;;
28828;SDS011;15966;51.540;11.870;2023-04-15T08:55:35;31.95;;;24.10;;
28828;SDS011;15966;51.540;11.870;2023-04-15T08:58:07;28.10;;;23.40;;
28828;SDS011;15966;51.540;11.870;2023-04-15T09:00:34;31.30;;;23.50;;
28828;SDS011;15966;51.540;11.870;2023-04-15T09:03:00;27.88;;;22.90;;
28828;SDS011;15966;51.540;11.870;2023-04-15T09:05:27;28.83;;;21.48;;
28828;SDS011;15966;51.540;11.870;2023-04-15T09:08:02;29.33;;;23.15;;
28828;SDS011;15966;51.540;11.870;2023-04-15T09:10:29;32.27;;;22.07;;
28828;SDS011;15966;51.540;11.870;2023-04-15T09:12:55;30.67;;;25.13;;
28828;SDS011;15966;51.540;11.870;2023-04-15T09:15:25;32.60;;;24.92;;
28828;SDS011;15966;51.540;11.870;2023-04-15T09:17:51;33.15;;;25.83;;
28828;SDS011;15966;51.540;11.870;2023-04-15T09:20:18;39.60;;;26.42;;
28828;SDS011;15966;51.540;11.870;2023-04-15T09:22:45;37.90;;;29.23;;
28828;SDS011;15966;51.540;11.870;2023-04-15T09:27:55;43.33;;;28.58;;
28828;SDS011;15966;51.540;11.870;2023-04-15T09:30:23;40.58;;;28.63;;
28828;SDS011;15966;51.540;11.870;2023-04-15T09:32:59;41.92;;;28.55;;
28828;SDS011;15966;51.540;11.870;2023-04-15T09:35:26;44.60;;;31.10;;
28828;SDS011;15966;51.540;11.870;2023-04-15T09:37:53;46.30;;;31.10;;
28828;SDS011;15966;51.540;11.870;2023-04-15T09:40:34;48.15;;;32.97;;
28828;SDS011;15966;51.540;11.870;2023-04-15T09:43:05;57.08;;;33.58;;
28828;SDS011;15966;51.540;11.870;2023-04-15T09:45:32;47.35;;;33.47;;
28828;SDS011;15966;51.540;11.870;2023-04-15T09:48:13;62.55;;;38.53;;
28828;SDS011;15966;51.540;11.870;2023-04-15T09:50:40;63.92;;;37.33;;
28828;SDS011;15966;51.540;11.870;2023-04-15T09:53:14;64.60;;;39.22;;
28828;SDS011;15966;51.540;11.870;2023-04-15T09:55:54;61.95;;;40.55;;
28828;SDS011;15966;51.540;11.870;2023-04-15T09:58:22;60.70;;;39.38;;
28828;SDS011;15966;51.540;11.870;2023-04-15T10:00:50;68.22;;;43.00;;
28828;SDS011;15966;51.540;11.870;2023-04-15T10:03:27;66.38;;;41.28;;
28828;SDS011;15966;51.540;11.870;2023-04-15T10:05:55;66.13;;;45.83;;
28828;SDS011;15966;51.540;11.870;2023-04-15T10:08:28;66.90;;;43.10;;
28828;SDS011;15966;51.540;11.870;2023-04-15T10:10:56;72.55;;;46.60;;
28828;SDS011;15966;51.540;11.870;2023-04-15T10:13:23;66.13;;;43.55;;
28828;SDS011;15966;51.540;11.870;2023-04-15T10:16:05;67.57;;;45.17;;
28828;SDS011;15966;51.540;11.870;2023-04-15T10:18:37;75.80;;;45.47;;
28828;SDS011;15966;51.540;11.870;2023-04-15T10:21:07;80.32;;;51.22;;
28828;SDS011;15966;51.540;11.870;2023-04-15T10:23:34;78.15;;;47.42;;
28828;SDS011;15966;51.540;11.870;2023-04-15T10:26:00;79.57;;;49.22;;
28828;SDS011;15966;51.540;11.870;2023-04-15T10:28:28;78.53;;;49.60;;
28828;SDS011;15966;51.540;11.870;2023-04-15T10:30:55;76.70;;;49.83;;
28828;SDS011;15966;51.540;11.870;2023-04-15T10:33:22;80.18;;;50.63;;
28828;SDS011;15966;51.540;11.870;2023-04-15T10:35:49;84.03;;;51.75;;
28828;SDS011;15966;51.540;11.870;2023-04-15T10:41:11;92.63;;;56.00;;
28828;SDS011;15966;51.540;11.870;2023-04-15T10:43:51;84.38;;;56.83;;
28828;SDS011;15966;51.540;11.870;2023-04-15T10:46:23;85.43;;;54.63;;
28828;SDS011;15966;51.540;11.870;2023-04-15T10:49:08;84.75;;;54.70;;
28828;SDS011;15966;51.540;11.870;2023-04-15T10:51:39;89.97;;;57.58;;
28828;SDS011;15966;51.540;11.870;2023-04-15T10:54:13;87.07;;;55.13;;
28828;SDS011;15966;51.540;11.870;2023-04-15T10:56:44;83.75;;;53.53;;
28828;SDS011;15966;51.540;11.870;2023-04-15T10:59:10;84.65;;;54.22;;
28828;SDS011;15966;51.540;11.870;2023-04-15T11:01:49;79.78;;;54.22;;
28828;SDS011;15966;51.540;11.870;2023-04-15T11:04:49;72.70;;;51.78;;
28828;SDS011;15966;51.540;11.870;2023-04-15T11:12:45;66.65;;;48.70;;
28828;SDS011;15966;51.540;11.870;2023-04-15T11:20:35;67.32;;;49.05;;
28828;SDS011;15966;51.540;11.870;2023-04-15T11:23:03;68.35;;;48.20;;
28828;SDS011;15966;51.540;11.870;2023-04-15T11:25:33;58.95;;;44.15;;
28828;SDS011;15966;51.540;11.870;2023-04-15T11:28:01;60.92;;;46.45;;
28828;SDS011;15966;51.540;11.870;2023-04-15T11:30:28;66.78;;;48.42;;
28828;SDS011;15966;51.540;11.870;2023-04-15T11:32:57;57.15;;;46.88;;
28828;SDS011;15966;51.540;11.870;2023-04-15T11:35:25;57.38;;;43.75;;
28828;SDS011;15966;51.540;11.870;2023-04-15T11:37:51;56.13;;;44.50;;
28828;SDS011;15966;51.540;11.870;2023-04-15T11:40:23;57.35;;;45.75;;
28828;SDS011;15966;51.540;11.870;2023-04-15T11:43:05;55.50;;;44.25;;
28828;SDS011;15966;51.540;11.870;2023-04-15T11:45:49;50.30;;;41.75;;
28828;SDS011;15966;51.540;11.870;2023-04-15T11:48:15;53.05;;;41.45;;
28828;SDS011;15966;51.540;11.870;2023-04-15T11:50:42;46.83;;;41.60;;
28828;SDS011;15966;51.540;11.870;2023-04-15T11:53:11;54.72;;;42.42;;
28828;SDS011;15966;51.540;11.870;2023-04-15T11:55:48;44.67;;;39.88;;
28828;SDS011;15966;51.540;11.870;2023-04-15T11:58:19;45.30;;;39.80;;
28828;SDS011;15966;51.540;11.870;2023-04-15T12:00:54;45.00;;;38.22;;
28828;SDS011;15966;51.540;11.870;2023-04-15T12:03:23;42.33;;;37.00;;
28828;SDS011;15966;51.540;11.870;2023-04-15T12:08:49;45.33;;;38.10;;
28828;SDS011;15966;51.540;11.870;2023-04-15T12:11:29;42.25;;;37.75;;
28828;SDS011;15966;51.540;11.870;2023-04-15T12:16:35;40.88;;;36.47;;
28828;SDS011;15966;51.540;11.870;2023-04-15T12:19:05;41.28;;;36.75;;
28828;SDS011;15966;51.540;11.870;2023-04-15T12:21:34;38.10;;;34.03;;
28828;SDS011;15966;51.540;11.870;2023-04-15T12:24:02;40.08;;;35.90;;
28828;SDS011;15966;51.540;11.870;2023-04-15T12:27:03;39.50;;;35.30;;
28828;SDS011;15966;51.540;11.870;2023-04-15T12:29:26;38.05;;;32.45;;
28828;SDS011;15966;51.540;11.870;2023-04-15T12:32:14;36.58;;;32.67;;
28828;SDS011;15966;51.540;11.870;2023-04-15T12:34:41;33.05;;;29.63;;
28828;SDS011;15966;51.540;11.870;2023-04-15T12:37:09;32.30;;;29.02;;
28828;SDS011;15966;51.540;11.870;2023-04-15T12:39:38;31.58;;;28.48;;
28828;SDS011;15966;51.540;11.870;2023-04-15T12:44:31;29.83;;;26.70;;
28828;SDS011;15966;51.540;11.870;2023-04-15T12:46:57;28.52;;;25.75;;
28828;SDS011;15966;51.540;11.870;2023-04-15T12:49:24;30.58;;;27.27;;
28828;SDS011;15966;51.540;11.870;2023-04-15T12:51:51;28.60;;;25.02;;
28828;SDS011;15966;51.540;11.870;2023-04-15T12:56:45;26.85;;;24.13;;
28828;SDS011;15966;51.540;11.870;2023-04-15T12:59:12;30.58;;;25.60;;
28828;SDS011;15966;51.540;11.870;2023-04-15T13:01:38;27.92;;;25.17;;
28828;SDS011;15966;51.540;11.870;2023-04-15T13:04:05;26.17;;;23.48;;
28828;SDS011;15966;51.540;11.870;2023-04-15T13:06:31;24.45;;;22.05;;
28828;SDS011;15966;51.540;11.870;2023-04-15T13:08:58;23.73;;;20.90;;
28828;SDS011;15966;51.540;11.870;2023-04-15T13:11:25;22.75;;;20.60;;
28828;SDS011;15966;51.540;11.870;2023-04-15T13:13:53;20.92;;;18.85;;
28828;SDS011;15966;51.540;11.870;2023-04-15T13:16:20;20.17;;;18.38;;
28828;SDS011;15966;51.540;11.870;2023-04-15T13:18:47;21.48;;;19.27;;
28828;SDS011;15966;51.540;11.870;2023-04-15T13:21:13;20.30;;;18.30;;
28828;SDS011;15966;51.540;11.870;2023-04-15T13:23:40;20.15;;;18.13;;
28828;SDS011;15966;51.540;11.870;2023-04-15T13:26:06;18.65;;;16.85;;
28828;SDS011;15966;51.540;11.870;2023-04-15T13:28:32;20.70;;;18.60;;
28828;SDS011;15966;51.540;11.870;2023-04-15T13:30:59;18.88;;;17.00;;
28828;SDS011;15966;51.540;11.870;2023-04-15T13:33:25;17.63;;;16.02;;
28828;SDS011;15966;51.540;11.870;2023-04-15T13:35:51;17.83;;;15.90;;
28828;SDS011;15966;51.540;11.870;2023-04-15T13:38:18;16.27;;;14.70;;
28828;SDS011;15966;51.540;11.870;2023-04-15T13:40:44;16.33;;;13.80;;
28828;SDS011;15966;51.540;11.870;2023-04-15T13:43:10;14.20;;;12.93;;
28828;SDS011;15966;51.540;11.870;2023-04-15T13:45:36;13.30;;;12.13;;
28828;SDS011;15966;51.540;11.870;2023-04-15T13:48:02;15.52;;;14.00;;
28828;SDS011;15966;51.540;11.870;2023-04-15T13:50:28;13.73;;;12.52;;
28828;SDS011;15966;51.540;11.870;2023-04-15T13:52:55;12.93;;;11.80;;
28828;SDS011;15966;51.540;11.870;2023-04-15T13:55:21;12.52;;;11.35;;
28828;SDS011;15966;51.540;11.870;2023-04-15T13:57:47;15.13;;;13.82;;
28828;SDS011;15966;51.540;11.870;2023-04-15T14:00:14;18.08;;;16.30;;
28828;SDS011;15966;51.540;11.870;2023-04-15T14:02:40;15.85;;;14.38;;
28828;SDS011;15966;51.540;11.870;2023-04-15T14:05:07;18.52;;;15.50;;
28828;SDS011;15966;51.540;11.870;2023-04-15T14:07:33;15.23;;;13.82;;
28828;SDS011;15966;51.540;11.870;2023-04-15T14:09:59;15.68;;;13.98;;
28828;SDS011;15966;51.540;11.870;2023-04-15T14:12:25;15.88;;;14.32;;
28828;SDS011;15966;51.540;11.870;2023-04-15T14:14:52;14.73;;;13.23;;
28828;SDS011;15966;51.540;11.870;2023-04-15T14:17:18;13.88;;;12.55;;
28828;SDS011;15966;51.540;11.870;2023-04-15T14:19:44;13.75;;;12.48;;
28828;SDS011;15966;51.540;11.870;2023-04-15T14:22:10;15.23;;;13.63;;
28828;SDS011;15966;51.540;11.870;2023-04-15T14:24:36;12.75;;;11.55;;
28828;SDS011;15966;51.540;11.870;2023-04-15T14:27:02;17.10;;;13.43;;
28828;SDS011;15966;51.540;11.870;2023-04-15T14:29:28;16.13;;;12.88;;
28828;SDS011;15966;51.540;11.870;2023-04-15T14:31:55;14.98;;;13.48;;
28828;SDS011;15966;51.540;11.870;2023-04-15T14:34:22;16.83;;;13.68;;
28828;SDS011;15966;51.540;11.870;2023-04-15T14:36:49;12.60;;;11.30;;
28828;SDS011;15966;51.540;11.870;2023-04-15T14:41:43;11.60;;;10.40;;
28828;SDS011;15966;51.540;11.870;2023-04-15T14:44:09;11.60;;;10.50;;
28828;SDS011;15966;51.540;11.870;2023-04-15T14:46:36;12.70;;;11.40;;
28828;SDS011;15966;51.540;11.870;2023-04-15T14:49:02;13.27;;;11.98;;
28828;SDS011;15966;51.540;11.870;2023-04-15T14:51:29;14.88;;;12.80;;